Time,TemperatureF,DewpointF,PressureIn,WindDirection,WindDirectionDegrees,WindSpeedMPH,WindSpeedGustMPH,Humidity,HourlyPrecipIn,Conditions,Clouds,dailyrainin,SolarRadiationWatts/m^2,SoftwareType,DateUTC
2013-08-12 00:00:00,71.3,67.9,29.97,South,169,0.0,0.0,89,0.00,,CLR,0.00,0.00,VWS V14.01,2013-08-12 04:00:00,
2013-08-12 00:01:00,71.3,67.9,29.97,SSE,168,0.0,0.0,89,0.00,,CLR,0.00,0.00,VWS V14.01,2013-08-12 04:01:00,
2013-08-12 00:02:00,71.3,67.9,29.97,SSE,168,0.0,0.0,89,0.00,,CLR,0.00,0.00,VWS V14.01,2013-08-12 04:02:00,
2013-08-12 00:07:00,71.1,67.7,29.98,SSE,168,0.0,0.0,89,0.00,,CLR,0.00,0.00,VWS V14.01,2013-08-12 04:07:00,
2013-08-12 00:12:00,71.0,67.6,29.98,South,169,0.0,0.0,89,0.00,,CLR,0.00,0.00,VWS V14.01,2013-08-12 04:12:00,
2013-08-12 00:17:00,70.8,67.4,29.98,South,169,0.0,0.0,89,0.00,,CLR,0.00,0.00,VWS V14.01,2013-08-12 04:17:00,
2013-08-12 00:23:00,70.7,67.3,29.98,South,169,0.0,0.0,89,0.00,,CLR,0.00,0.00,VWS V14.01,2013-08-12 04:23:00,
2013-08-12 00:28:00,70.5,67.1,29.98,South,169,0.0,0.0,89,0.00,,CLR,0.00,0.00,VWS V14.01,2013-08-12 04:28:00,
2013-08-12 00:33:00,70.4,67.0,29.98,South,169,0.0,0.0,89,0.00,,CLR,0.00,0.00,VWS V14.01,2013-08-12 04:33:00,
2013-08-12 00:38:00,70.4,67.3,29.98,South,169,0.0,0.0,90,0.00,,CLR,0.00,0.00,VWS V14.01,2013-08-12 04:38:00,
2013-08-12 00:43:00,70.5,68.1,29.98,South,169,0.0,0.0,92,0.00,,CLR,0.00,0.00,VWS V14.01,2013-08-12 04:43:00,
2013-08-12 00:48:00,70.6,68.2,29.98,South,169,0.0,0.0,92,0.00,,CLR,0.00,0.00,VWS V14.01,2013-08-12 04:48:00,
2013-08-12 00:53:00,70.6,68.5,29.98,South,169,0.0,0.0,93,0.00,,CLR,0.00,0.00,VWS V14.01,2013-08-12 04:53:00,
2013-08-12 00:58:00,70.5,68.4,29.98,South,169,0.0,0.0,93,0.00,,CLR,0.00,0.00,VWS V14.01,2013-08-12 04:58:00,
2013-08-12 01:04:00,70.4,68.3,29.98,South,169,0.0,0.0,93,0.00,,CLR,0.00,0.00,VWS V14.01,2013-08-12 05:04:00,
2013-08-12 01:09:00,70.4,68.3,29.98,SSE,168,0.0,0.0,93,0.00,,CLR,0.00,0.00,VWS V14.01,2013-08-12 05:09:00,
2013-08-12 01:15:00,70.3,68.2,29.98,South,169,0.0,0.0,93,0.00,,CLR,0.00,0.00,VWS V14.01,2013-08-12 05:15:00,
2013-08-12 01:20:00,70.3,68.2,29.98,South,169,0.0,0.0,93,0.00,,CLR,0.00,0.00,VWS V14.01,2013-08-12 05:20:00,
2013-08-12 01:25:00,70.2,68.1,29.98,South,169,0.0,0.0,93,0.00,,CLR,0.00,0.00,VWS V14.01,2013-08-12 05:25:00,
2013-08-12 01:30:00,70.1,68.0,29.97,South,169,0.0,0.0,93,0.00,,CLR,0.00,0.00,VWS V14.01,2013-08-12 05:30:00,
2013-08-12 01:35:00,70.1,68.0,29.97,South,169,0.0,0.0,93,0.00,,CLR,0.00,0.00,VWS V14.01,2013-08-12 05:35:00,
2013-08-12 01:40:00,70.1,68.3,29.97,SSE,168,0.0,0.0,94,0.00,,CLR,0.00,0.00,VWS V14.01,2013-08-12 05:40:00,
2013-08-12 01:45:00,70.1,68.3,29.97,South,169,0.0,0.0,94,0.00,,CLR,0.00,0.00,VWS V14.01,2013-08-12 05:45:00,
2013-08-12 01:50:00,69.9,68.1,29.98,South,169,0.0,0.0,94,0.00,,CLR,0.00,0.00,VWS V14.01,2013-08-12 05:50:00,
2013-08-12 01:55:00,69.9,68.1,29.97,South,169,0.0,0.0,94,0.00,,CLR,0.00,0.00,VWS V14.01,2013-08-12 05:55:00,
2013-08-12 02:01:00,69.8,68.0,29.97,SSE,168,0.0,0.0,94,0.00,,CLR,0.00,0.00,VWS V14.01,2013-08-12 06:01:00,
2013-08-12 02:06:00,69.7,67.9,29.98,South,169,0.0,0.0,94,0.00,,CLR,0.00,0.00,VWS V14.01,2013-08-12 06:06:00,
2013-08-12 02:11:00,69.7,67.9,29.97,South,169,0.0,0.0,94,0.00,,CLR,0.00,0.00,VWS V14.01,2013-08-12 06:11:00,
2013-08-12 02:16:00,69.7,67.9,29.98,SSE,168,0.0,0.0,94,0.00,,CLR,0.00,0.00,VWS V14.01,2013-08-12 06:16:00,
2013-08-12 02:21:00,69.6,67.8,29.98,SSE,168,0.0,0.0,94,0.00,,CLR,0.00,0.00,VWS V14.01,2013-08-12 06:21:00,
2013-08-12 02:26:00,69.6,67.8,29.97,South,169,0.0,0.0,94,0.00,,CLR,0.00,0.00,VWS V14.01,2013-08-12 06:26:00,
2013-08-12 02:31:00,69.6,68.1,29.97,South,169,0.0,0.0,95,0.00,,CLR,0.00,0.00,VWS V14.01,2013-08-12 06:31:00,
2013-08-12 02:36:00,69.7,68.2,29.97,South,169,0.0,0.0,95,0.00,,CLR,0.00,0.00,VWS V14.01,2013-08-12 06:36:00,
2013-08-12 02:41:00,69.7,68.2,29.97,SSE,168,0.0,0.0,95,0.00,,CLR,0.00,0.00,VWS V14.01,2013-08-12 06:41:00,
2013-08-12 02:47:00,69.7,68.2,29.97,SSE,168,0.0,0.0,95,0.00,,CLR,0.00,0.00,VWS V14.01,2013-08-12 06:47:00,
2013-08-12 02:52:00,69.7,68.5,29.97,SSE,168,0.0,0.0,96,0.00,,CLR,0.00,0.00,VWS V14.01,2013-08-12 06:52:00,
2013-08-12 02:57:00,69.7,68.5,29.97,SSE,168,0.0,0.0,96,0.00,,CLR,0.00,0.00,VWS V14.01,2013-08-12 06:57:00,
2013-08-12 03:02:00,69.6,68.4,29.97,SSE,161,0.0,0.0,96,0.00,,CLR,0.00,0.00,VWS V14.01,2013-08-12 07:02:00,
2013-08-12 03:07:00,69.5,68.3,29.97,SSE,161,0.0,0.0,96,0.00,,CLR,0.00,0.00,VWS V14.01,2013-08-12 07:07:00,
2013-08-12 03:12:00,69.4,68.2,29.96,SSE,161,0.0,0.0,96,0.00,,CLR,0.00,0.00,VWS V14.01,2013-08-12 07:12:00,
2013-08-12 03:17:00,69.3,68.1,29.96,SSE,162,0.0,0.0,96,0.00,,CLR,0.00,0.00,VWS V14.01,2013-08-12 07:17:00,
2013-08-12 03:22:00,69.2,68.0,29.96,SSE,162,0.0,0.0,96,0.00,,CLR,0.00,0.00,VWS V14.01,2013-08-12 07:22:00,
2013-08-12 03:28:00,69.1,67.9,29.96,SSE,161,0.0,0.0,96,0.00,,CLR,0.00,0.00,VWS V14.01,2013-08-12 07:28:00,
2013-08-12 03:33:00,69.0,67.8,29.96,SSE,161,0.0,0.0,96,0.00,,CLR,0.00,0.00,VWS V14.01,2013-08-12 07:33:00,
2013-08-12 03:38:00,68.9,67.7,29.96,SSE,161,0.0,0.0,96,0.00,,CLR,0.00,0.00,VWS V14.01,2013-08-12 07:38:00,
2013-08-12 03:43:00,68.8,67.6,29.96,SSE,162,0.0,0.0,96,0.00,,CLR,0.00,0.00,VWS V14.01,2013-08-12 07:43:00,
2013-08-12 03:48:00,68.7,67.5,29.96,SSE,162,0.0,0.0,96,0.00,,CLR,0.00,0.00,VWS V14.01,2013-08-12 07:48:00,
2013-08-12 03:53:00,68.6,67.4,29.96,SSE,162,0.0,0.0,96,0.00,,CLR,0.00,0.00,VWS V14.01,2013-08-12 07:53:00,
2013-08-12 03:58:00,68.4,67.2,29.96,SSE,162,0.0,0.0,96,0.00,,CLR,0.00,0.00,VWS V14.01,2013-08-12 07:58:00,
2013-08-12 04:03:00,68.3,67.1,29.96,SSE,162,0.0,0.0,96,0.00,,CLR,0.00,0.00,VWS V14.01,2013-08-12 08:03:00,
2013-08-12 04:08:00,68.2,67.0,29.96,SSE,161,0.0,0.0,96,0.00,,CLR,0.00,0.00,VWS V14.01,2013-08-12 08:08:00,
2013-08-12 04:14:00,68.1,66.9,29.96,SSE,162,0.0,0.0,96,0.00,,CLR,0.00,0.00,VWS V14.01,2013-08-12 08:14:00,
2013-08-12 04:19:00,68.0,66.8,29.96,SSE,161,0.0,0.0,96,0.00,,CLR,0.00,0.00,VWS V14.01,2013-08-12 08:19:00,
2013-08-12 04:24:00,67.9,66.7,29.96,SSE,161,0.0,0.0,96,0.00,,CLR,0.00,0.00,VWS V14.01,2013-08-12 08:24:00,
2013-08-12 04:29:00,67.8,66.6,29.96,SSE,162,0.0,0.0,96,0.00,,CLR,0.00,0.00,VWS V14.01,2013-08-12 08:29:00,
2013-08-12 04:34:00,67.7,66.5,29.96,SSE,162,0.0,0.0,96,0.00,,CLR,0.00,0.00,VWS V14.01,2013-08-12 08:34:00,
2013-08-12 04:39:00,67.6,66.4,29.96,SSE,161,0.0,0.0,96,0.00,,CLR,0.00,0.00,VWS V14.01,2013-08-12 08:39:00,
2013-08-12 04:44:00,67.5,66.3,29.96,SSE,162,0.0,0.0,96,0.00,,CLR,0.00,0.00,VWS V14.01,2013-08-12 08:44:00,
2013-08-12 04:49:00,67.3,66.1,29.96,SSE,162,0.0,0.0,96,0.00,,CLR,0.00,0.00,VWS V14.01,2013-08-12 08:49:00,
2013-08-12 04:54:00,67.2,66.0,29.96,SSE,162,0.0,0.0,96,0.00,,CLR,0.00,0.00,VWS V14.01,2013-08-12 08:54:00,
2013-08-12 04:59:00,67.1,65.9,29.96,SSE,162,0.0,0.0,96,0.00,,CLR,0.00,0.00,VWS V14.01,2013-08-12 08:59:00,
2013-08-12 05:04:00,67.0,66.1,29.97,SSE,162,0.0,0.0,97,0.00,,CLR,0.00,0.00,VWS V14.01,2013-08-12 09:04:00,
2013-08-12 05:09:00,67.0,66.1,29.97,SSE,162,0.0,0.0,97,0.00,,CLR,0.00,0.00,VWS V14.01,2013-08-12 09:09:00,
2013-08-12 05:14:00,67.1,66.2,29.97,SSE,162,0.0,0.0,97,0.00,,CLR,0.00,0.00,VWS V14.01,2013-08-12 09:14:00,
2013-08-12 05:19:00,67.1,66.2,29.97,SSE,161,0.0,0.0,97,0.00,,CLR,0.00,0.00,VWS V14.01,2013-08-12 09:19:00,
2013-08-12 05:24:00,67.1,66.2,29.97,SSE,161,0.0,0.0,97,0.00,,CLR,0.00,0.00,VWS V14.01,2013-08-12 09:24:00,
2013-08-12 05:29:00,67.0,66.1,29.97,SSE,161,0.0,0.0,97,0.00,,CLR,0.00,0.00,VWS V14.01,2013-08-12 09:29:00,
2013-08-12 05:34:00,67.1,66.2,29.97,SSE,161,0.0,0.0,97,0.00,,CLR,0.00,0.00,VWS V14.01,2013-08-12 09:34:00,
2013-08-12 05:39:00,67.0,66.1,29.97,SSE,162,0.0,0.0,97,0.00,,CLR,0.00,0.00,VWS V14.01,2013-08-12 09:39:00,
2013-08-12 05:44:00,67.0,66.1,29.96,SSE,162,0.0,0.0,97,0.00,,CLR,0.00,0.00,VWS V14.01,2013-08-12 09:44:00,
2013-08-12 05:50:00,66.9,66.0,29.96,SSE,162,0.0,0.0,97,0.00,,CLR,0.00,0.00,VWS V14.01,2013-08-12 09:50:00,
2013-08-12 05:55:00,66.8,65.9,29.96,SSE,162,0.0,0.0,97,0.00,,CLR,0.00,0.00,VWS V14.01,2013-08-12 09:55:00,
2013-08-12 06:00:00,66.8,65.9,29.97,SSE,162,0.0,0.0,97,0.00,,CLR,0.00,0.00,VWS V14.01,2013-08-12 10:00:00,
2013-08-12 06:05:00,66.7,65.8,29.97,SSE,162,0.0,0.0,97,0.00,,CLR,0.00,0.00,VWS V14.01,2013-08-12 10:05:00,
2013-08-12 06:10:00,66.6,65.7,29.97,SSE,161,0.0,0.0,97,0.00,,CLR,0.00,0.00,VWS V14.01,2013-08-12 10:10:00,
2013-08-12 06:15:00,66.6,65.7,29.97,SSE,161,0.0,0.0,97,0.00,,CLR,0.00,0.00,VWS V14.01,2013-08-12 10:15:00,
2013-08-12 06:20:00,66.5,65.9,29.97,SSE,162,0.0,0.0,98,0.00,,CLR,0.00,0.00,VWS V14.01,2013-08-12 10:20:00,
2013-08-12 06:25:00,66.5,65.6,29.97,SSE,162,0.0,0.0,97,0.00,,CLR,0.00,5.00,VWS V14.01,2013-08-12 10:25:00,
2013-08-12 06:30:00,66.4,65.5,29.97,SSE,161,0.0,0.0,97,0.00,,CLR,0.00,7.00,VWS V14.01,2013-08-12 10:30:00,
2013-08-12 06:35:00,66.4,65.5,29.98,SSE,161,0.0,0.0,97,0.00,,CLR,0.00,12.00,VWS V14.01,2013-08-12 10:35:00,
2013-08-12 06:41:00,66.3,65.7,29.97,SSE,161,0.0,0.0,98,0.00,,CLR,0.00,16.00,VWS V14.01,2013-08-12 10:41:00,
2013-08-12 06:46:00,66.3,65.7,29.98,SSE,162,0.0,0.0,98,0.00,,CLR,0.00,19.00,VWS V14.01,2013-08-12 10:46:00,
2013-08-12 06:51:00,66.3,65.7,29.98,SSE,162,0.0,0.0,98,0.00,,CLR,0.00,25.00,VWS V14.01,2013-08-12 10:51:00,
2013-08-12 06:56:00,66.3,65.7,29.99,SSE,161,0.0,0.0,98,0.00,,CLR,0.00,30.00,VWS V14.01,2013-08-12 10:56:00,
2013-08-12 07:01:00,66.3,65.7,29.98,SSE,161,0.0,0.0,98,0.00,,CLR,0.00,37.00,VWS V14.01,2013-08-12 11:01:00,
2013-08-12 07:06:00,66.4,65.8,29.99,SSE,162,0.0,0.0,98,0.00,,CLR,0.00,42.00,VWS V14.01,2013-08-12 11:06:00,
2013-08-12 07:11:00,66.4,65.8,29.99,SSE,161,0.0,0.0,98,0.00,,CLR,0.00,47.00,VWS V14.01,2013-08-12 11:11:00,
2013-08-12 07:16:00,66.5,65.9,29.99,SSE,161,0.0,0.0,98,0.00,,CLR,0.00,53.00,VWS V14.01,2013-08-12 11:16:00,
2013-08-12 07:21:00,66.5,65.9,29.99,SSE,161,0.0,0.0,98,0.00,,CLR,0.00,53.00,VWS V14.01,2013-08-12 11:21:00,
2013-08-12 07:26:00,66.6,66.0,29.99,SSE,162,0.0,0.0,98,0.00,,CLR,0.00,67.00,VWS V14.01,2013-08-12 11:26:00,
2013-08-12 07:32:00,66.8,66.2,29.99,SSE,162,0.0,0.0,98,0.00,,CLR,0.00,79.00,VWS V14.01,2013-08-12 11:32:00,
2013-08-12 07:37:00,67.1,66.5,29.99,SSE,162,0.0,0.0,98,0.00,,CLR,0.00,88.00,VWS V14.01,2013-08-12 11:37:00,
2013-08-12 07:42:00,67.3,66.7,29.99,SSE,161,0.0,0.0,98,0.00,,CLR,0.00,86.00,VWS V14.01,2013-08-12 11:42:00,
2013-08-12 07:47:00,67.6,67.3,29.98,SSE,162,0.0,0.0,99,0.00,,CLR,0.00,90.00,VWS V14.01,2013-08-12 11:47:00,
2013-08-12 07:52:00,67.9,67.6,29.98,SSE,161,0.0,0.0,99,0.00,,CLR,0.00,111.00,VWS V14.01,2013-08-12 11:52:00,
2013-08-12 07:57:00,68.1,67.8,29.98,SSE,162,0.0,0.0,99,0.00,,CLR,0.00,130.00,VWS V14.01,2013-08-12 11:57:00,
2013-08-12 08:02:00,68.4,68.1,29.99,SSE,161,0.0,0.0,99,0.00,,CLR,0.00,123.00,VWS V14.01,2013-08-12 12:02:00,
2013-08-12 08:07:00,68.8,68.5,29.99,SSE,162,0.0,0.0,99,0.00,,CLR,0.00,142.00,VWS V14.01,2013-08-12 12:07:00,
2013-08-12 08:12:00,69.0,68.7,29.99,SSE,162,0.0,0.0,99,0.00,,CLR,0.00,125.00,VWS V14.01,2013-08-12 12:12:00,
2013-08-12 08:17:00,69.3,69.0,29.99,SSE,162,0.0,0.0,99,0.00,,CLR,0.00,137.00,VWS V14.01,2013-08-12 12:17:00,
2013-08-12 08:23:00,69.6,69.3,29.99,SSE,162,0.0,0.0,99,0.00,,CLR,0.00,209.00,VWS V14.01,2013-08-12 12:23:00,
2013-08-12 08:28:00,69.7,69.4,29.99,SSE,161,0.0,0.0,99,0.00,,CLR,0.00,255.00,VWS V14.01,2013-08-12 12:28:00,
2013-08-12 08:33:00,69.9,69.6,29.99,SSE,162,0.0,0.0,99,0.00,,CLR,0.00,237.00,VWS V14.01,2013-08-12 12:33:00,
2013-08-12 08:38:00,70.2,69.9,29.98,SSE,162,0.0,0.0,99,0.00,,CLR,0.00,200.00,VWS V14.01,2013-08-12 12:38:00,
2013-08-12 08:43:00,70.4,70.1,29.99,SSE,162,0.0,0.0,99,0.00,,CLR,0.00,162.00,VWS V14.01,2013-08-12 12:43:00,
2013-08-12 08:48:00,70.7,70.4,29.99,SSE,162,0.0,0.0,99,0.00,,CLR,0.00,315.00,VWS V14.01,2013-08-12 12:48:00,
2013-08-12 08:53:00,71.0,70.7,29.99,SSE,162,0.0,0.0,99,0.00,,CLR,0.00,267.00,VWS V14.01,2013-08-12 12:53:00,
2013-08-12 08:58:00,71.1,70.5,29.99,SSE,162,0.0,0.0,98,0.00,,CLR,0.00,130.00,VWS V14.01,2013-08-12 12:58:00,
2013-08-12 09:03:00,71.1,70.5,29.99,SSE,161,0.0,0.0,98,0.00,,CLR,0.00,197.00,VWS V14.01,2013-08-12 13:03:00,
2013-08-12 09:08:00,71.4,70.8,29.98,SSE,161,0.0,0.0,98,0.00,,CLR,0.00,359.00,VWS V14.01,2013-08-12 13:08:00,
2013-08-12 09:14:00,71.9,71.3,29.98,SSE,161,0.0,0.0,98,0.00,,CLR,0.00,237.00,VWS V14.01,2013-08-12 13:14:00,
2013-08-12 09:19:00,72.6,71.7,29.98,SSE,161,0.0,0.0,97,0.00,,CLR,0.00,392.00,VWS V14.01,2013-08-12 13:19:00,
2013-08-12 09:24:00,73.1,71.9,29.98,SSE,162,0.0,0.0,96,0.00,,CLR,0.00,179.00,VWS V14.01,2013-08-12 13:24:00,
2013-08-12 09:29:00,73.4,71.9,29.99,SSE,162,0.0,0.0,95,0.00,,CLR,0.00,165.00,VWS V14.01,2013-08-12 13:29:00,
2013-08-12 09:34:00,73.9,72.4,29.98,SSE,162,0.0,0.0,95,0.00,,CLR,0.00,350.00,VWS V14.01,2013-08-12 13:34:00,
2013-08-12 09:39:00,74.5,72.7,29.98,North,10,0.0,0.0,94,0.00,,CLR,0.00,269.00,VWS V14.01,2013-08-12 13:39:00,
2013-08-12 09:44:00,74.9,72.7,29.98,ESE,123,0.0,0.0,93,0.00,,CLR,0.00,320.00,VWS V14.01,2013-08-12 13:44:00,
2013-08-12 09:49:00,75.3,72.5,29.99,ESE,123,0.0,0.0,91,0.00,,CLR,0.00,241.00,VWS V14.01,2013-08-12 13:49:00,
2013-08-12 09:54:00,75.3,72.2,29.98,NW,319,0.0,0.0,90,0.00,,CLR,0.00,325.00,VWS V14.01,2013-08-12 13:54:00,
2013-08-12 09:59:00,75.5,72.4,29.98,North,355,0.0,0.0,90,0.00,,CLR,0.00,301.00,VWS V14.01,2013-08-12 13:59:00,
2013-08-12 10:04:00,75.6,72.1,29.98,NW,316,0.0,0.0,89,0.00,,CLR,0.00,202.00,VWS V14.01,2013-08-12 14:04:00,
2013-08-12 10:09:00,75.6,71.8,29.99,NW,324,0.0,0.0,88,0.00,,CLR,0.00,304.00,VWS V14.01,2013-08-12 14:09:00,
2013-08-12 10:14:00,75.9,72.1,29.98,NW,311,0.0,0.0,88,0.00,,CLR,0.00,220.00,VWS V14.01,2013-08-12 14:14:00,
2013-08-12 10:19:00,76.1,71.9,29.99,NNW,348,0.0,0.0,87,0.00,,CLR,0.00,538.00,VWS V14.01,2013-08-12 14:19:00,
2013-08-12 10:24:00,76.8,73.0,29.99,North,355,0.0,0.0,88,0.00,,CLR,0.00,534.00,VWS V14.01,2013-08-12 14:24:00,
2013-08-12 10:29:00,77.6,73.1,29.99,NNW,337,0.0,0.0,86,0.00,,CLR,0.00,587.00,VWS V14.01,2013-08-12 14:29:00,
2013-08-12 10:34:00,77.8,71.9,29.99,West,276,3.0,7.0,82,0.00,,CLR,0.00,345.00,VWS V14.01,2013-08-12 14:34:00,
2013-08-12 10:39:00,77.6,72.0,29.98,NW,318,0.0,6.0,83,0.00,,CLR,0.00,550.00,VWS V14.01,2013-08-12 14:39:00,
2013-08-12 10:44:00,78.0,72.1,29.99,North,350,1.0,7.0,82,0.00,,CLR,0.00,529.00,VWS V14.01,2013-08-12 14:44:00,
2013-08-12 10:49:00,78.2,71.2,29.98,NW,322,5.0,6.0,79,0.00,,CLR,0.00,531.00,VWS V14.01,2013-08-12 14:49:00,
2013-08-12 10:54:00,78.5,71.1,29.98,North,11,0.0,5.0,78,0.00,,CLR,0.00,480.00,VWS V14.01,2013-08-12 14:54:00,
2013-08-12 10:59:00,78.7,71.3,29.98,NW,323,1.0,6.0,78,0.00,,CLR,0.00,564.00,VWS V14.01,2013-08-12 14:59:00,
2013-08-12 11:04:00,79.0,71.6,29.98,NE,52,0.0,6.0,78,0.00,,CLR,0.00,587.00,VWS V14.01,2013-08-12 15:04:00,
2013-08-12 11:09:00,79.3,72.2,29.98,NNW,348,0.0,4.0,79,0.00,,CLR,0.00,619.00,VWS V14.01,2013-08-12 15:09:00,
2013-08-12 11:14:00,79.6,72.1,29.98,NW,318,0.0,7.0,78,0.00,,CLR,0.00,728.00,VWS V14.01,2013-08-12 15:14:00,
2013-08-12 11:19:00,79.7,71.9,29.98,WNW,288,0.0,0.0,77,0.00,,CLR,0.00,724.00,VWS V14.01,2013-08-12 15:19:00,
2013-08-12 11:24:00,79.4,71.6,29.98,WNW,295,0.0,0.0,77,0.00,,CLR,0.00,670.00,VWS V14.01,2013-08-12 15:24:00,
2013-08-12 11:29:00,79.8,71.6,29.98,NNW,336,1.0,1.0,76,0.00,,CLR,0.00,677.00,VWS V14.01,2013-08-12 15:29:00,
2013-08-12 11:34:00,80.4,71.8,29.98,NNW,346,1.0,1.0,75,0.00,,CLR,0.00,682.00,VWS V14.01,2013-08-12 15:34:00,
2013-08-12 11:39:00,80.6,71.6,29.98,NNW,328,5.0,6.0,74,0.00,,CLR,0.00,636.00,VWS V14.01,2013-08-12 15:39:00,
2013-08-12 11:44:00,80.8,71.7,29.98,NNW,343,2.0,4.0,74,0.00,,CLR,0.00,622.00,VWS V14.01,2013-08-12 15:44:00,
2013-08-12 11:49:00,80.9,71.8,29.98,ENE,72,0.0,2.0,74,0.00,,CLR,0.00,610.00,VWS V14.01,2013-08-12 15:49:00,
2013-08-12 11:54:00,80.9,71.4,29.98,North,5,0.0,0.0,73,0.00,,CLR,0.00,621.00,VWS V14.01,2013-08-12 15:54:00,
2013-08-12 12:00:00,81.1,71.2,29.98,NNW,348,4.0,6.0,72,0.00,,CLR,0.00,626.00,VWS V14.01,2013-08-12 16:00:00,
2013-08-12 12:05:00,81.1,70.8,29.98,NW,318,2.0,7.0,71,0.00,,CLR,0.00,763.00,VWS V14.01,2013-08-12 16:05:00,
2013-08-12 12:10:00,81.4,71.9,29.98,NW,321,0.0,1.0,73,0.00,,CLR,0.00,837.00,VWS V14.01,2013-08-12 16:10:00,
2013-08-12 12:15:00,81.8,71.9,29.98,North,355,2.0,2.0,72,0.00,,CLR,0.00,856.00,VWS V14.01,2013-08-12 16:15:00,
2013-08-12 12:20:00,81.9,72.4,29.98,NNW,327,2.0,5.0,73,0.00,,CLR,0.00,316.00,VWS V14.01,2013-08-12 16:20:00,
2013-08-12 12:25:00,81.7,71.4,29.98,NNW,334,0.0,5.0,71,0.00,,CLR,0.00,772.00,VWS V14.01,2013-08-12 16:25:00,
2013-08-12 12:30:00,81.8,72.3,29.97,North,5,4.0,5.0,73,0.00,,CLR,0.00,606.00,VWS V14.01,2013-08-12 16:30:00,
2013-08-12 12:35:00,81.6,72.5,29.97,NW,318,2.0,2.0,74,0.00,,CLR,0.00,749.00,VWS V14.01,2013-08-12 16:35:00,
2013-08-12 12:40:00,82.1,72.2,29.97,North,360,0.0,5.0,72,0.00,,CLR,0.00,851.00,VWS V14.01,2013-08-12 16:40:00,
2013-08-12 12:46:00,82.1,71.3,29.97,NW,304,0.0,1.0,70,0.00,,CLR,0.00,318.00,VWS V14.01,2013-08-12 16:46:00,
2013-08-12 12:51:00,82.0,70.8,29.98,NNW,348,0.0,5.0,69,0.00,,CLR,0.00,694.00,VWS V14.01,2013-08-12 16:51:00,
2013-08-12 12:56:00,82.2,71.4,29.98,North,360,3.0,5.0,70,0.00,,CLR,0.00,406.00,VWS V14.01,2013-08-12 16:56:00,
2013-08-12 13:01:00,82.2,71.4,29.97,NNE,14,0.0,3.0,70,0.00,,CLR,0.00,833.00,VWS V14.01,2013-08-12 17:01:00,
2013-08-12 13:06:00,82.2,71.9,29.97,NNE,14,0.0,0.0,71,0.00,,CLR,0.00,795.00,VWS V14.01,2013-08-12 17:06:00,
2013-08-12 13:11:00,82.4,71.2,29.97,NE,37,1.0,4.0,69,0.00,,CLR,0.00,860.00,VWS V14.01,2013-08-12 17:11:00,
2013-08-12 13:16:00,82.8,71.6,29.97,NW,319,0.0,2.0,69,0.00,,CLR,0.00,875.00,VWS V14.01,2013-08-12 17:16:00,
2013-08-12 13:21:00,82.9,71.7,29.96,North,9,0.0,1.0,69,0.00,,CLR,0.00,775.00,VWS V14.01,2013-08-12 17:21:00,
2013-08-12 13:27:00,82.7,71.1,29.97,NNW,347,3.0,4.0,68,0.00,,CLR,0.00,285.00,VWS V14.01,2013-08-12 17:27:00,
2013-08-12 13:32:00,82.5,71.3,29.96,North,360,0.0,3.0,69,0.00,,CLR,0.00,837.00,VWS V14.01,2013-08-12 17:32:00,
2013-08-12 13:37:00,82.9,71.7,29.96,North,360,2.0,3.0,69,0.00,,CLR,0.00,846.00,VWS V14.01,2013-08-12 17:37:00,
2013-08-12 13:42:00,83.2,69.3,29.96,NNW,332,3.0,6.0,63,0.00,,CLR,0.00,865.00,VWS V14.01,2013-08-12 17:42:00,
2013-08-12 13:47:00,83.4,69.5,29.96,NW,304,0.0,5.0,63,0.00,,CLR,0.00,844.00,VWS V14.01,2013-08-12 17:47:00,
2013-08-12 13:52:00,83.5,70.1,29.96,NNW,348,1.0,4.0,64,0.00,,CLR,0.00,840.00,VWS V14.01,2013-08-12 17:52:00,
2013-08-12 13:57:00,83.7,69.3,29.96,NNW,342,0.0,4.0,62,0.00,,CLR,0.00,824.00,VWS V14.01,2013-08-12 17:57:00,
2013-08-12 14:02:00,83.7,70.7,29.96,NNW,340,4.0,4.0,65,0.00,,CLR,0.00,823.00,VWS V14.01,2013-08-12 18:02:00,
2013-08-12 14:07:00,83.9,70.0,29.96,WNW,303,0.0,6.0,63,0.00,,CLR,0.00,805.00,VWS V14.01,2013-08-12 18:07:00,
2013-08-12 14:13:00,84.3,73.0,29.95,WNW,303,0.0,1.0,69,0.00,,CLR,0.00,823.00,VWS V14.01,2013-08-12 18:13:00,
2013-08-12 14:18:00,84.3,71.3,29.95,NW,315,2.0,5.0,65,0.00,,CLR,0.00,828.00,VWS V14.01,2013-08-12 18:18:00,
2013-08-12 14:23:00,84.4,72.2,29.95,NNW,345,0.0,5.0,67,0.00,,CLR,0.00,800.00,VWS V14.01,2013-08-12 18:23:00,
2013-08-12 14:28:00,84.4,71.4,29.95,North,360,0.0,6.0,65,0.00,,CLR,0.00,821.00,VWS V14.01,2013-08-12 18:28:00,
2013-08-12 14:33:00,84.6,70.6,29.95,North,5,0.0,1.0,63,0.00,,CLR,0.00,788.00,VWS V14.01,2013-08-12 18:33:00,
2013-08-12 14:38:00,84.3,69.9,29.95,NNW,342,2.0,3.0,62,0.00,,CLR,0.00,807.00,VWS V14.01,2013-08-12 18:38:00,
2013-08-12 14:43:00,84.3,71.3,29.95,NE,44,1.0,4.0,65,0.00,,CLR,0.00,810.00,VWS V14.01,2013-08-12 18:43:00,
2013-08-12 14:49:00,84.5,69.6,29.95,SE,136,0.0,4.0,61,0.00,,CLR,0.00,802.00,VWS V14.01,2013-08-12 18:49:00,
2013-08-12 14:54:00,84.7,70.2,29.95,ESE,113,0.0,0.0,62,0.00,,CLR,0.00,770.00,VWS V14.01,2013-08-12 18:54:00,
2013-08-12 14:59:00,84.8,70.3,29.95,North,5,0.0,1.0,62,0.00,,CLR,0.00,758.00,VWS V14.01,2013-08-12 18:59:00,
2013-08-12 15:04:00,85.0,70.1,29.94,NNW,333,1.0,3.0,61,0.00,,CLR,0.00,747.00,VWS V14.01,2013-08-12 19:04:00,
2013-08-12 15:09:00,85.0,69.1,29.94,North,360,0.0,0.0,59,0.00,,CLR,0.00,745.00,VWS V14.01,2013-08-12 19:09:00,
2013-08-12 15:14:00,85.2,70.2,29.94,NNW,327,1.0,2.0,61,0.00,,CLR,0.00,710.00,VWS V14.01,2013-08-12 19:14:00,
2013-08-12 15:19:00,85.1,71.1,29.94,North,355,2.0,4.0,63,0.00,,CLR,0.00,682.00,VWS V14.01,2013-08-12 19:19:00,
2013-08-12 15:24:00,85.3,71.3,29.94,NNW,338,5.0,7.0,63,0.00,,CLR,0.00,568.00,VWS V14.01,2013-08-12 19:24:00,
2013-08-12 15:29:00,85.1,71.1,29.93,NNW,346,0.0,4.0,63,0.00,,CLR,0.00,621.00,VWS V14.01,2013-08-12 19:29:00,
2013-08-12 15:35:00,84.6,69.7,29.94,NNW,345,0.0,0.0,61,0.00,,CLR,0.00,341.00,VWS V14.01,2013-08-12 19:35:00,
2013-08-12 15:40:00,84.5,70.1,29.93,North,349,0.0,1.0,62,0.00,,CLR,0.00,559.00,VWS V14.01,2013-08-12 19:40:00,
2013-08-12 15:45:00,84.9,70.4,29.93,NW,321,5.0,5.0,62,0.00,,CLR,0.00,700.00,VWS V14.01,2013-08-12 19:45:00,
2013-08-12 15:50:00,85.1,70.2,29.93,NNW,340,0.0,3.0,61,0.00,,CLR,0.00,698.00,VWS V14.01,2013-08-12 19:50:00,
2013-08-12 15:55:00,85.2,71.7,29.93,NNW,342,0.0,2.0,64,0.00,,CLR,0.00,680.00,VWS V14.01,2013-08-12 19:55:00,
2013-08-12 16:00:00,85.4,69.9,29.92,North,355,1.0,5.0,60,0.00,,CLR,0.00,677.00,VWS V14.01,2013-08-12 20:00:00,
2013-08-12 16:05:00,85.5,70.0,29.92,North,11,0.0,0.0,60,0.00,,CLR,0.00,664.00,VWS V14.01,2013-08-12 20:05:00,
2013-08-12 16:10:00,85.8,71.8,29.92,North,10,0.0,1.0,63,0.00,,CLR,0.00,652.00,VWS V14.01,2013-08-12 20:10:00,
2013-08-12 16:15:00,85.9,70.4,29.92,North,355,0.0,2.0,60,0.00,,CLR,0.00,631.00,VWS V14.01,2013-08-12 20:15:00,
2013-08-12 16:20:00,85.9,69.9,29.92,NNW,337,0.0,1.0,59,0.00,,CLR,0.00,622.00,VWS V14.01,2013-08-12 20:20:00,
2013-08-12 16:26:00,85.7,70.2,29.92,NNW,337,0.0,0.0,60,0.00,,CLR,0.00,608.00,VWS V14.01,2013-08-12 20:26:00,
2013-08-12 16:31:00,85.7,70.2,29.92,West,261,0.0,1.0,60,0.00,,CLR,0.00,596.00,VWS V14.01,2013-08-12 20:31:00,
2013-08-12 16:36:00,85.9,71.8,29.92,West,261,0.0,1.0,63,0.00,,CLR,0.00,585.00,VWS V14.01,2013-08-12 20:36:00,
2013-08-12 16:41:00,85.9,70.9,29.92,SE,142,0.0,1.0,61,0.00,,CLR,0.00,564.00,VWS V14.01,2013-08-12 20:41:00,
2013-08-12 16:46:00,86.0,71.5,29.92,South,182,0.0,1.0,62,0.00,,CLR,0.00,557.00,VWS V14.01,2013-08-12 20:46:00,
2013-08-12 16:51:00,86.0,71.0,29.92,South,182,0.0,0.0,61,0.00,,CLR,0.00,534.00,VWS V14.01,2013-08-12 20:51:00,
2013-08-12 16:56:00,86.1,72.5,29.92,SSE,157,0.0,1.0,64,0.00,,CLR,0.00,503.00,VWS V14.01,2013-08-12 20:56:00,
2013-08-12 17:01:00,86.0,70.5,29.92,SSW,202,0.0,5.0,60,0.00,,CLR,0.00,496.00,VWS V14.01,2013-08-12 21:01:00,
2013-08-12 17:06:00,85.7,70.7,29.91,SSW,202,0.0,3.0,61,0.00,,CLR,0.00,473.00,VWS V14.01,2013-08-12 21:06:00,
2013-08-12 17:12:00,85.6,70.6,29.91,SSW,202,0.0,1.0,61,0.00,,CLR,0.00,455.00,VWS V14.01,2013-08-12 21:12:00,
2013-08-12 17:17:00,85.6,71.6,29.91,South,186,0.0,2.0,63,0.00,,CLR,0.00,359.00,VWS V14.01,2013-08-12 21:17:00,
2013-08-12 17:22:00,85.3,70.3,29.90,SSW,205,2.0,4.0,61,0.00,,CLR,0.00,388.00,VWS V14.01,2013-08-12 21:22:00,
2013-08-12 17:27:00,84.9,70.9,29.91,SSW,202,2.0,3.0,63,0.00,,CLR,0.00,295.00,VWS V14.01,2013-08-12 21:27:00,
2013-08-12 17:32:00,84.5,70.5,29.91,SSW,205,0.0,5.0,63,0.00,,CLR,0.00,338.00,VWS V14.01,2013-08-12 21:32:00,
2013-08-12 17:37:00,84.2,70.7,29.90,SSW,203,0.0,2.0,64,0.00,,CLR,0.00,214.00,VWS V14.01,2013-08-12 21:37:00,
2013-08-12 17:42:00,83.9,70.9,29.90,SSW,203,0.0,0.0,65,0.00,,CLR,0.00,213.00,VWS V14.01,2013-08-12 21:42:00,
2013-08-12 17:47:00,83.7,70.2,29.91,SSW,203,0.0,0.0,64,0.00,,CLR,0.00,229.00,VWS V14.01,2013-08-12 21:47:00,
2013-08-12 17:52:00,83.5,70.9,29.90,SSW,203,0.0,0.0,66,0.00,,CLR,0.00,181.00,VWS V14.01,2013-08-12 21:52:00,
2013-08-12 17:59:00,83.3,71.6,29.90,SSW,203,0.0,0.0,68,0.00,,CLR,0.00,202.00,VWS V14.01,2013-08-12 21:59:00,
2013-08-12 18:04:00,83.3,72.1,29.90,SSW,203,0.0,0.0,69,0.00,,CLR,0.00,350.00,VWS V14.01,2013-08-12 22:04:00,
2013-08-12 18:09:00,83.4,70.9,29.90,SSW,203,0.0,1.0,66,0.00,,CLR,0.00,199.00,VWS V14.01,2013-08-12 22:09:00,
2013-08-12 18:14:00,83.5,71.4,29.90,SSW,203,0.0,1.0,67,0.00,,CLR,0.00,178.00,VWS V14.01,2013-08-12 22:14:00,
2013-08-12 18:19:00,83.4,71.7,29.89,SSW,202,0.0,0.0,68,0.00,,CLR,0.00,135.00,VWS V14.01,2013-08-12 22:19:00,
2013-08-12 18:24:00,83.0,71.4,29.89,SSW,202,0.0,0.0,68,0.00,,CLR,0.00,167.00,VWS V14.01,2013-08-12 22:24:00,
2013-08-12 18:29:00,83.0,71.8,29.89,SSW,202,0.0,0.0,69,0.00,,CLR,0.00,234.00,VWS V14.01,2013-08-12 22:29:00,
2013-08-12 18:34:00,83.0,71.8,29.89,SSW,203,0.0,0.0,69,0.00,,CLR,0.00,200.00,VWS V14.01,2013-08-12 22:34:00,
2013-08-12 18:39:00,83.0,71.8,29.89,SSW,203,0.0,0.0,69,0.00,,CLR,0.00,199.00,VWS V14.01,2013-08-12 22:39:00,
2013-08-12 18:44:00,83.0,71.8,29.89,SSW,202,0.0,0.0,69,0.00,,CLR,0.00,218.00,VWS V14.01,2013-08-12 22:44:00,
2013-08-12 18:49:00,83.1,72.7,29.89,SSW,202,0.0,0.0,71,0.00,,CLR,0.00,156.00,VWS V14.01,2013-08-12 22:49:00,
2013-08-12 18:54:00,83.0,73.1,29.89,SSW,202,0.0,1.0,72,0.00,,CLR,0.00,134.00,VWS V14.01,2013-08-12 22:54:00,
2013-08-12 19:00:00,82.9,72.9,29.89,SSW,202,0.0,0.0,72,0.00,,CLR,0.00,137.00,VWS V14.01,2013-08-12 23:00:00,
2013-08-12 19:05:00,82.7,72.8,29.89,SSW,202,0.0,0.0,72,0.00,,CLR,0.00,113.00,VWS V14.01,2013-08-12 23:05:00,
2013-08-12 19:10:00,82.6,72.2,29.89,SSW,202,0.0,0.0,71,0.00,,CLR,0.00,88.00,VWS V14.01,2013-08-12 23:10:00,
2013-08-12 19:12:00,82.5,72.2,29.89,SSW,202,0.0,0.0,71,0.00,,CLR,0.00,83.00,VWS V14.01,2013-08-12 23:12:00,
2013-08-12 19:17:00,82.5,73.0,29.89,SSW,202,0.0,0.0,73,0.00,,CLR,0.00,67.00,VWS V14.01,2013-08-12 23:17:00,
2013-08-12 19:22:00,82.5,73.0,29.89,SSW,202,0.0,0.0,73,0.00,,CLR,0.00,58.00,VWS V14.01,2013-08-12 23:22:00,
2013-08-12 19:27:00,82.4,73.3,29.89,SSW,202,0.0,0.0,74,0.00,,CLR,0.00,56.00,VWS V14.01,2013-08-12 23:27:00,
2013-08-12 19:32:00,82.1,73.4,29.89,SSW,202,0.0,0.0,75,0.00,,CLR,0.00,51.00,VWS V14.01,2013-08-12 23:32:00,
2013-08-12 19:37:00,81.9,73.2,29.89,SSW,202,0.0,0.0,75,0.00,,CLR,0.00,44.00,VWS V14.01,2013-08-12 23:37:00,
2013-08-12 19:42:00,81.8,73.5,29.89,SSW,202,0.0,0.0,76,0.00,,CLR,0.00,47.00,VWS V14.01,2013-08-12 23:42:00,
2013-08-12 19:48:00,81.6,73.3,29.89,SSW,202,0.0,0.0,76,0.00,,CLR,0.00,35.00,VWS V14.01,2013-08-12 23:48:00,
2013-08-12 19:53:00,81.3,73.4,29.89,SSW,202,0.0,0.0,77,0.00,,CLR,0.00,28.00,VWS V14.01,2013-08-12 23:53:00,
2013-08-12 19:58:00,81.0,73.1,29.89,SSW,202,0.0,0.0,77,0.00,,CLR,0.00,23.00,VWS V14.01,2013-08-12 23:58:00,
2013-08-12 20:03:00,80.6,72.7,29.89,SSW,202,0.0,0.0,77,0.00,,CLR,0.00,18.00,VWS V14.01,2013-08-13 00:03:00,
2013-08-12 20:08:00,80.2,72.3,29.89,SSW,202,0.0,0.0,77,0.00,,CLR,0.00,11.00,VWS V14.01,2013-08-13 00:08:00,
2013-08-12 20:13:00,80.0,72.2,29.88,SSW,202,0.0,0.0,77,0.00,,CLR,0.00,0.00,VWS V14.01,2013-08-13 00:13:00,
2013-08-12 20:18:00,79.6,71.8,29.89,SSW,202,0.0,0.0,77,0.00,,CLR,0.00,0.00,VWS V14.01,2013-08-13 00:18:00,
2013-08-12 20:23:00,79.3,71.5,29.89,SSW,202,0.0,0.0,77,0.00,,CLR,0.00,0.00,VWS V14.01,2013-08-13 00:23:00,
2013-08-12 20:28:00,78.9,71.1,29.89,SSW,202,0.0,0.0,77,0.00,,CLR,0.00,0.00,VWS V14.01,2013-08-13 00:28:00,
2013-08-12 20:34:00,78.7,71.3,29.89,SSW,201,0.0,0.0,78,0.00,,CLR,0.00,0.00,VWS V14.01,2013-08-13 00:34:00,
2013-08-12 20:39:00,78.4,71.0,29.88,SSW,202,0.0,0.0,78,0.00,,CLR,0.00,0.00,VWS V14.01,2013-08-13 00:39:00,
2013-08-12 20:44:00,78.1,71.1,29.89,SSW,202,0.0,0.0,79,0.00,,CLR,0.00,0.00,VWS V14.01,2013-08-13 00:44:00,
2013-08-12 20:45:00,78.0,71.0,29.88,SSW,202,0.0,0.0,79,0.00,,CLR,0.00,0.00,VWS V14.01,2013-08-13 00:45:00,
2013-08-12 20:50:00,77.7,70.7,29.89,SSW,202,0.0,0.0,79,0.00,,CLR,0.00,0.00,VWS V14.01,2013-08-13 00:50:00,
2013-08-12 20:55:00,77.4,70.4,29.89,SSW,202,0.0,0.0,79,0.00,,CLR,0.00,0.00,VWS V14.01,2013-08-13 00:55:00,
2013-08-12 21:00:00,77.2,70.6,29.89,SSW,202,0.0,0.0,80,0.00,,CLR,0.00,0.00,VWS V14.01,2013-08-13 01:00:00,
2013-08-12 21:06:00,77.0,70.4,29.89,SSW,202,0.0,0.0,80,0.00,,CLR,0.00,0.00,VWS V14.01,2013-08-13 01:06:00,
2013-08-12 21:11:00,76.7,70.4,29.88,SSW,202,0.0,0.0,81,0.00,,CLR,0.00,0.00,VWS V14.01,2013-08-13 01:11:00,
2013-08-12 21:16:00,76.5,70.2,29.89,SSW,202,0.0,0.0,81,0.00,,CLR,0.00,0.00,VWS V14.01,2013-08-13 01:16:00,
2013-08-12 21:21:00,76.2,69.9,29.89,SSW,202,0.0,0.0,81,0.00,,CLR,0.00,0.00,VWS V14.01,2013-08-13 01:21:00,
2013-08-12 21:26:00,75.9,69.7,29.89,SSW,202,0.0,0.0,81,0.00,,CLR,0.00,0.00,VWS V14.01,2013-08-13 01:26:00,
2013-08-12 21:31:00,75.7,69.8,29.90,SSW,201,0.0,0.0,82,0.00,,CLR,0.00,0.00,VWS V14.01,2013-08-13 01:31:00,
2013-08-12 21:36:00,75.4,69.5,29.89,SSW,202,0.0,0.0,82,0.00,,CLR,0.00,0.00,VWS V14.01,2013-08-13 01:36:00,
2013-08-12 21:41:00,75.2,69.3,29.90,SSW,202,0.0,0.0,82,0.00,,CLR,0.00,0.00,VWS V14.01,2013-08-13 01:41:00,
2013-08-12 21:46:00,75.0,69.5,29.90,SSW,202,0.0,0.0,83,0.00,,CLR,0.00,0.00,VWS V14.01,2013-08-13 01:46:00,
2013-08-12 21:51:00,74.8,69.7,29.90,SSW,201,0.0,0.0,84,0.00,,CLR,0.00,0.00,VWS V14.01,2013-08-13 01:51:00,
2013-08-12 21:57:00,74.6,69.8,29.89,SSW,201,0.0,0.0,85,0.00,,CLR,0.00,0.00,VWS V14.01,2013-08-13 01:57:00,
2013-08-12 22:02:00,74.4,69.6,29.89,SSW,202,0.0,0.0,85,0.00,,CLR,0.00,0.00,VWS V14.01,2013-08-13 02:02:00,
2013-08-12 22:07:00,74.2,69.4,29.89,SSW,202,0.0,0.0,85,0.00,,CLR,0.00,0.00,VWS V14.01,2013-08-13 02:07:00,
2013-08-12 22:12:00,74.1,69.3,29.89,SSW,202,0.0,0.0,85,0.00,,CLR,0.00,0.00,VWS V14.01,2013-08-13 02:12:00,
2013-08-12 22:17:00,73.9,69.1,29.89,SSW,202,0.0,0.0,85,0.00,,CLR,0.00,0.00,VWS V14.01,2013-08-13 02:17:00,
2013-08-12 22:22:00,73.8,69.3,29.89,SSW,201,0.0,0.0,86,0.00,,CLR,0.00,0.00,VWS V14.01,2013-08-13 02:22:00,
2013-08-12 22:27:00,73.7,69.6,29.88,SSW,202,0.0,0.0,87,0.00,,CLR,0.00,0.00,VWS V14.01,2013-08-13 02:27:00,
2013-08-12 22:33:00,73.6,69.8,29.88,SSW,202,0.0,0.0,88,0.00,,CLR,0.00,0.00,VWS V14.01,2013-08-13 02:33:00,
2013-08-12 22:38:00,73.5,69.7,29.88,SSW,202,0.0,0.0,88,0.00,,CLR,0.00,0.00,VWS V14.01,2013-08-13 02:38:00,
2013-08-12 22:43:00,73.4,69.6,29.88,SSW,201,0.0,0.0,88,0.00,,CLR,0.00,0.00,VWS V14.01,2013-08-13 02:43:00,
2013-08-12 22:48:00,73.3,69.5,29.88,SSW,202,0.0,0.0,88,0.00,,CLR,0.00,0.00,VWS V14.01,2013-08-13 02:48:00,
2013-08-12 22:53:00,73.1,69.3,29.88,SSW,201,0.0,0.0,88,0.00,,CLR,0.00,0.00,VWS V14.01,2013-08-13 02:53:00,
2013-08-12 22:58:00,73.1,69.7,29.88,SSW,202,0.0,0.0,89,0.00,,CLR,0.00,0.00,VWS V14.01,2013-08-13 02:58:00,
2013-08-12 23:03:00,73.0,69.6,29.88,SSW,202,0.0,1.0,89,0.00,,CLR,0.00,0.00,VWS V14.01,2013-08-13 03:03:00,
2013-08-12 23:08:00,73.0,69.6,29.88,SSW,201,0.0,1.0,89,0.00,,CLR,0.00,0.00,VWS V14.01,2013-08-13 03:08:00,
2013-08-12 23:13:00,73.0,69.6,29.88,SSW,202,0.0,0.0,89,0.00,,CLR,0.00,0.00,VWS V14.01,2013-08-13 03:13:00,
2013-08-12 23:18:00,73.0,69.6,29.88,SSW,201,0.0,2.0,89,0.00,,CLR,0.00,0.00,VWS V14.01,2013-08-13 03:18:00,
2013-08-12 23:23:00,73.0,69.6,29.88,SSW,201,0.0,1.0,89,0.00,,CLR,0.00,0.00,VWS V14.01,2013-08-13 03:23:00,
2013-08-12 23:28:00,73.0,69.6,29.88,SSW,200,0.0,1.0,89,0.00,,CLR,0.00,0.00,VWS V14.01,2013-08-13 03:28:00,
2013-08-12 23:34:00,73.1,69.7,29.87,SSW,200,0.0,0.0,89,0.00,,CLR,0.00,0.00,VWS V14.01,2013-08-13 03:34:00,
2013-08-12 23:39:00,73.1,69.7,29.87,SSW,200,0.0,0.0,89,0.00,,CLR,0.00,0.00,VWS V14.01,2013-08-13 03:39:00,
2013-08-12 23:44:00,73.2,69.8,29.87,SSW,200,0.0,0.0,89,0.00,,CLR,0.00,0.00,VWS V14.01,2013-08-13 03:44:00,
2013-08-12 23:53:00,73.3,69.9,29.87,SSW,201,0.0,0.0,89,0.00,,CLR,0.00,0.00,VWS V14.01,2013-08-13 03:53:00,
2013-08-12 23:58:00,73.3,69.9,29.87,SSW,201,0.0,0.0,89,0.00,,CLR,0.00,0.00,VWS V14.01,2013-08-13 03:58:00,